createdAt,value
2022-10-25T12:21:46.629Z,45.80
2022-10-25T12:24:23.943Z,42.40
2022-10-25T12:26:58.218Z,45.20
2022-10-25T12:29:37.653Z,45.60
2022-10-25T12:32:18.368Z,43.80
2022-10-25T12:34:55.116Z,43.40
2022-10-25T12:37:39.659Z,44.80
2022-10-25T12:40:20.909Z,45.80
2022-10-25T12:42:57.564Z,44.00
2022-10-25T12:45:44.967Z,48.40
2022-10-25T12:48:34.217Z,45.20
2022-10-25T12:51:23.980Z,44.20
2022-10-25T12:54:28.396Z,55.00
2022-10-25T12:57:12.772Z,52.60
2022-10-25T13:00:02.057Z,53.20
2022-10-25T13:03:20.280Z,66.60
2022-10-25T13:06:23.389Z,102.50
2022-10-25T13:08:56.918Z,106.75
2022-10-25T13:11:40.768Z,94.80
2022-10-25T13:14:30.026Z,79.40
2022-10-25T13:17:53.174Z,65.00
2022-10-25T13:20:50.180Z,58.40
2022-10-25T13:24:01.732Z,54.60
2022-10-25T13:26:58.090Z,49.80
2022-10-25T13:30:03.203Z,46.60
2022-10-25T13:32:37.263Z,50.80
2022-10-25T13:35:57.446Z,50.80
2022-10-25T13:38:36.565Z,49.00
2022-10-25T13:41:18.376Z,58.40
2022-10-25T13:44:04.441Z,59.00
2022-10-25T13:46:40.991Z,59.80
2022-10-25T13:49:39.619Z,61.80
2022-10-25T13:52:26.811Z,62.40
2022-10-25T13:55:00.154Z,59.60
2022-10-25T13:57:53.574Z,54.00
2022-10-25T14:00:37.275Z,55.60
2022-10-25T14:03:49.936Z,59.00
2022-10-25T14:06:31.939Z,54.60
2022-10-25T14:09:23.477Z,48.60
2022-10-25T14:11:58.676Z,49.40
2022-10-25T14:14:33.161Z,57.60
2022-10-25T14:17:18.501Z,55.00
2022-10-25T14:19:56.280Z,51.60
2022-10-25T14:22:34.568Z,48.80
2022-10-25T14:25:10.972Z,54.60
2022-10-25T14:27:43.201Z,50.20
2022-10-25T14:30:34.928Z,55.80
2022-10-25T14:33:23.763Z,52.80
2022-10-25T14:35:59.973Z,53.20
2022-10-25T14:38:32.770Z,54.80
2022-10-25T14:41:08.126Z,58.00
2022-10-25T14:43:42.185Z,59.80
2022-10-25T14:46:18.928Z,57.60
2022-10-25T14:48:56.507Z,69.80
2022-10-25T14:51:32.510Z,74.40
2022-10-25T14:54:07.860Z,79.40
2022-10-25T14:56:44.563Z,71.40
2022-10-25T14:59:27.979Z,71.80
2022-10-25T15:02:03.638Z,76.40
2022-10-25T15:04:42.330Z,74.60
2022-10-25T15:07:25.493Z,73.60
2022-10-25T15:09:58.993Z,76.20
2022-10-25T15:12:33.370Z,80.00
2022-10-25T15:15:35.806Z,88.60
2022-10-25T15:18:08.470Z,96.50
2022-10-25T15:20:42.743Z,95.75
2022-10-25T15:23:20.093Z,102.25
2022-10-25T15:25:52.333Z,96.50
2022-10-25T15:28:24.709Z,95.50
2022-10-25T15:31:09.873Z,130.75
2022-10-25T15:33:44.294Z,215.40
2022-10-25T15:36:25.955Z,253.60
2022-10-25T15:39:12.748Z,218.75
2022-10-25T15:41:48.194Z,186.00
2022-10-25T15:44:21.070Z,165.00
2022-10-25T15:46:54.059Z,147.00
2022-10-25T15:49:26.690Z,130.25
2022-10-25T15:52:03.115Z,125.25
2022-10-25T15:54:36.146Z,112.00
2022-10-25T15:57:08.475Z,80.60
2022-10-25T15:59:41.231Z,76.20
2022-10-25T16:02:22.197Z,65.20
2022-10-25T16:04:55.731Z,71.80
2022-10-25T16:07:29.951Z,65.40
2022-10-25T16:10:02.502Z,84.20
2022-10-25T16:12:36.540Z,84.80
2022-10-25T16:15:10.841Z,82.60
2022-10-25T16:17:42.955Z,80.40
2022-10-25T16:20:20.524Z,85.40
2022-10-25T16:22:55.529Z,83.40
2022-10-25T16:25:32.836Z,84.20
2022-10-25T16:28:05.919Z,81.60
2022-10-25T16:30:41.708Z,84.40
2022-10-25T16:33:15.520Z,81.40
2022-10-25T16:35:47.830Z,91.40
2022-10-25T16:38:21.369Z,89.20
2022-10-25T16:40:54.018Z,82.60
2022-10-25T16:43:26.214Z,92.00
2022-10-25T16:45:58.756Z,98.75
2022-10-25T16:48:31.178Z,95.75
2022-10-25T16:51:03.656Z,100.75
2022-10-25T16:53:37.458Z,104.00
2022-10-25T16:56:12.838Z,109.25
2022-10-25T16:58:45.229Z,117.50
2022-10-25T17:01:23.266Z,109.25
2022-10-25T17:03:56.118Z,110.00
2022-10-25T17:06:40.804Z,105.75
2022-10-25T17:09:15.363Z,114.75
2022-10-25T17:11:48.169Z,115.25
2022-10-25T17:14:20.517Z,112.67
2022-10-25T17:16:52.830Z,126.00
2022-10-25T17:19:26.308Z,123.00
2022-10-25T17:21:59.508Z,126.75
2022-10-25T17:24:37.420Z,126.50
2022-10-25T17:27:10.278Z,131.00
2022-10-25T17:29:42.652Z,127.75
2022-10-25T17:32:15.207Z,126.00
2022-10-25T17:34:47.474Z,110.50
2022-10-25T17:37:19.367Z,129.75
2022-10-25T17:39:53.476Z,131.50
2022-10-25T17:42:26.392Z,127.50
2022-10-25T17:44:58.383Z,131.25
2022-10-25T17:47:31.311Z,129.75
2022-10-25T17:50:03.467Z,130.00
2022-10-25T17:52:35.857Z,132.75
2022-10-25T17:55:11.530Z,135.00
2022-10-25T17:57:45.427Z,145.75
2022-10-25T18:00:19.269Z,137.50
2022-10-25T18:02:53.043Z,154.75
2022-10-25T18:05:25.842Z,156.00
2022-10-25T18:07:58.323Z,158.00
